createdAt,value
2024-01-07T00:00:44.507Z,95347.19
2024-01-07T00:03:11.132Z,95360.72
2024-01-07T00:05:38.670Z,95355.97
2024-01-07T00:08:05.725Z,95361.16
2024-01-07T00:10:32.209Z,95356.75
2024-01-07T00:12:58.801Z,95355.41
2024-01-07T00:15:28.233Z,95357.22
2024-01-07T00:17:55.046Z,95362.03
2024-01-07T00:20:21.755Z,95365.22
2024-01-07T00:22:48.598Z,95372.53
2024-01-07T00:25:15.176Z,95382.13
2024-01-07T00:27:42.283Z,95387.88
2024-01-07T00:30:08.958Z,95391.25
2024-01-07T00:32:35.532Z,95386.28
2024-01-07T00:35:02.324Z,95391.69
2024-01-07T00:37:28.867Z,95392.69
2024-01-07T00:39:55.381Z,95386.50
2024-01-07T00:42:22.216Z,95394.28
2024-01-07T00:44:48.939Z,95395.88
2024-01-07T00:47:15.387Z,95383.69
2024-01-07T00:49:42.673Z,95383.47
2024-01-07T00:52:09.920Z,95391.13
2024-01-07T00:54:36.526Z,95390.69
2024-01-07T00:57:03.417Z,95391.69
2024-01-07T00:59:30.921Z,95397.28
2024-01-07T01:01:57.449Z,95397.28
2024-01-07T01:04:24.052Z,95404.50
2024-01-07T01:06:50.720Z,95405.50
2024-01-07T01:09:17.273Z,95403.94
2024-01-07T01:11:43.752Z,95402.34
2024-01-07T01:14:10.288Z,95411.13
2024-01-07T01:16:36.747Z,95412.72
2024-01-07T01:19:03.289Z,95403.34
2024-01-07T01:21:29.912Z,95411.13
2024-01-07T01:23:56.460Z,95415.53
2024-01-07T01:26:23.021Z,95408.75
2024-01-07T01:28:49.449Z,95411.59
2024-01-07T01:31:16.585Z,95410.00
2024-01-07T01:33:43.266Z,95421.94
2024-01-07T01:36:10.116Z,95427.13
2024-01-07T01:38:36.595Z,95428.50
2024-01-07T01:41:03.085Z,95436.25
2024-01-07T01:43:30.253Z,95430.50
2024-01-07T01:45:57.825Z,95432.53
2024-01-07T01:48:26.453Z,95428.59
2024-01-07T01:50:55.202Z,95436.34
2024-01-07T01:53:21.692Z,95439.97
2024-01-07T01:55:48.475Z,95434.78
2024-01-07T01:58:14.956Z,95441.97
2024-01-07T02:00:41.862Z,95441.97
2024-01-07T02:03:08.799Z,95438.38
2024-01-07T02:05:35.464Z,95443.97
2024-01-07T02:08:02.078Z,95447.16
2024-01-07T02:10:35.203Z,95448.75
2024-01-07T02:13:02.019Z,95456.50
2024-01-07T02:15:28.547Z,95449.53
2024-01-07T02:17:55.309Z,95451.56
2024-01-07T02:20:21.890Z,95459.09
2024-01-07T02:22:48.505Z,95455.50
2024-01-07T02:25:14.977Z,95461.13
2024-01-07T02:27:41.614Z,95459.91
2024-01-07T02:30:09.011Z,95467.88
2024-01-07T02:32:37.333Z,95463.50
2024-01-07T02:35:04.108Z,95468.69
2024-01-07T02:37:30.851Z,95463.50
2024-01-07T02:40:01.355Z,95463.72
2024-01-07T02:42:28.962Z,95459.72
2024-01-07T02:44:55.488Z,95464.69
2024-01-07T02:47:22.033Z,95461.13
2024-01-07T02:49:48.815Z,95459.50
2024-01-07T02:52:15.408Z,95455.94
2024-01-07T02:54:41.887Z,95457.94
2024-01-07T02:57:08.409Z,95462.31
2024-01-07T02:59:35.100Z,95457.16
2024-01-07T03:02:01.667Z,95463.13
2024-01-07T03:04:28.131Z,95459.94
2024-01-07T03:06:54.589Z,95460.41
2024-01-07T03:09:21.230Z,95457.59
2024-01-07T03:11:47.656Z,95457.22
2024-01-07T03:14:14.111Z,95462.41
2024-01-07T03:16:40.532Z,95461.63
2024-01-07T03:19:07.114Z,95453.63
2024-01-07T03:21:33.636Z,95455.22
2024-01-07T03:24:00.151Z,95463.56
2024-01-07T03:26:31.315Z,95469.31
2024-01-07T03:29:00.770Z,95466.94
2024-01-07T03:31:27.796Z,95463.19
2024-01-07T03:33:54.661Z,95462.84
2024-01-07T03:36:21.288Z,95472.63
2024-01-07T03:38:47.741Z,95474.44
2024-01-07T03:41:21.600Z,95469.69
2024-01-07T03:43:49.079Z,95479.28
2024-01-07T03:46:17.244Z,95468.13
2024-01-07T03:48:44.472Z,95472.47
2024-01-07T03:51:11.140Z,95476.69
2024-01-07T03:53:37.635Z,95470.72
2024-01-07T03:56:04.682Z,95474.28
2024-01-07T03:58:31.144Z,95474.09
2024-01-07T04:00:57.701Z,95474.50
2024-01-07T04:03:24.680Z,95469.31
2024-01-07T04:05:51.295Z,95477.88
2024-01-07T04:08:17.863Z,95477.66
2024-01-07T04:10:44.476Z,95470.91
2024-01-07T04:13:11.124Z,95483.06
2024-01-07T04:15:37.748Z,95478.66
2024-01-07T04:18:05.340Z,95477.66
2024-01-07T04:20:32.278Z,95480.84
2024-01-07T04:22:58.806Z,95482.66
2024-01-07T04:25:25.388Z,95474.28
2024-01-07T04:27:51.837Z,95488.03
2024-01-07T04:30:18.471Z,95491.44
2024-01-07T04:32:45.031Z,95486.44
2024-01-07T04:35:11.553Z,95488.84
2024-01-07T04:37:38.787Z,95495.38
2024-01-07T04:40:06.027Z,95490.19
2024-01-07T04:42:32.635Z,95488.84
2024-01-07T04:44:59.186Z,95486.44
2024-01-07T04:47:35.292Z,95491.63
2024-01-07T04:50:02.303Z,95494.44
2024-01-07T04:52:28.922Z,95498.03
2024-01-07T04:54:56.492Z,95504.78
2024-01-07T04:57:23.115Z,95503.56
2024-01-07T04:59:50.767Z,95506.38
2024-01-07T05:02:17.978Z,95508.75
2024-01-07T05:04:44.588Z,95502.59
2024-01-07T05:07:11.188Z,95518.13
2024-01-07T05:09:37.738Z,95515.53
2024-01-07T05:12:04.469Z,95520.72
2024-01-07T05:14:30.928Z,95531.06
2024-01-07T05:16:57.523Z,95530.28
2024-01-07T05:19:24.612Z,95536.25
2024-01-07T05:21:51.140Z,95533.84
2024-01-07T05:24:17.647Z,95543.41
2024-01-07T05:26:45.946Z,95543.41
2024-01-07T05:29:13.257Z,95547.44
2024-01-07T05:31:41.102Z,95552.63
2024-01-07T05:34:08.438Z,95550.63
2024-01-07T05:36:35.058Z,95547.03
2024-01-07T05:39:01.892Z,95543.00
2024-01-07T05:41:28.406Z,95551.78
2024-01-07T05:43:55.031Z,95543.41
2024-01-07T05:46:21.801Z,95545.59
2024-01-07T05:48:50.236Z,95549.78
2024-01-07T05:51:17.945Z,95552.94
2024-01-07T05:53:45.557Z,95560.13
2024-01-07T05:56:12.395Z,95560.13
2024-01-07T05:58:38.938Z,95571.06
2024-01-07T06:01:06.432Z,95576.25
2024-01-07T06:03:33.222Z,95569.28
2024-01-07T06:05:59.908Z,95572.09
2024-01-07T06:08:27.506Z,95584.47
2024-01-07T06:10:54.057Z,95578.09
2024-01-07T06:13:20.568Z,95584.88
2024-01-07T06:15:47.403Z,95586.44
2024-01-07T06:18:13.975Z,95581.25
2024-01-07T06:20:40.654Z,95588.47
2024-01-07T06:23:07.375Z,95592.06
2024-01-07T06:25:33.880Z,95593.44
2024-01-07T06:28:00.444Z,95589.25
2024-01-07T06:30:27.146Z,95597.81
2024-01-07T06:32:54.403Z,95602.41
2024-01-07T06:35:20.970Z,95602.41
2024-01-07T06:37:47.462Z,95606.00
2024-01-07T06:40:14.403Z,95608.59
2024-01-07T06:42:42.099Z,95618.16
2024-01-07T06:45:09.164Z,95617.97
2024-01-07T06:47:35.969Z,95621.56
2024-01-07T06:50:02.776Z,95625.72
2024-01-07T06:52:29.263Z,95636.66
2024-01-07T06:54:55.893Z,95636.66
2024-01-07T06:57:22.347Z,95641.84
2024-01-07T06:59:48.938Z,95640.25
2024-01-07T07:02:15.406Z,95645.44
2024-01-07T07:04:42.001Z,95641.84
2024-01-07T07:07:08.603Z,95642.63
2024-01-07T07:09:35.801Z,95642.84
2024-01-07T07:12:02.334Z,95641.84
2024-01-07T07:14:28.824Z,95651.63
2024-01-07T07:16:55.252Z,95649.03
2024-01-07T07:19:21.803Z,95647.47
2024-01-07T07:21:48.350Z,95644.88
2024-01-07T07:24:14.809Z,95656.22
2024-01-07T07:26:42.229Z,95652.63
2024-01-07T07:29:10.784Z,95655.22
2024-01-07T07:31:37.793Z,95654.00
2024-01-07T07:34:05.399Z,95653.22
2024-01-07T07:36:32.542Z,95663.00
2024-01-07T07:38:59.085Z,95654.22
2024-01-07T07:41:25.565Z,95666.81
2024-01-07T07:43:52.074Z,95663.44
2024-01-07T07:46:18.645Z,95661.41
2024-01-07T07:48:45.237Z,95665.81
2024-01-07T07:51:11.893Z,95673.16
2024-01-07T07:53:41.395Z,95675.38
2024-01-07T07:56:08.409Z,95676.16
2024-01-07T07:58:35.054Z,95687.09
2024-01-07T08:01:01.727Z,95685.31
2024-01-07T08:03:28.437Z,95686.88
2024-01-07T08:05:55.002Z,95688.47
2024-01-07T08:08:21.841Z,95693.66
2024-01-07T08:10:48.248Z,95700.84
2024-01-07T08:13:15.023Z,95695.66
2024-01-07T08:15:41.542Z,95705.81
2024-01-07T08:18:08.137Z,95705.03
2024-01-07T08:20:34.665Z,95713.38
2024-01-07T08:23:01.445Z,95707.22
2024-01-07T08:25:28.278Z,95718.72
2024-01-07T08:27:54.774Z,95717.88
2024-01-07T08:30:21.391Z,95717.88
2024-01-07T08:32:48.004Z,95719.91
2024-01-07T08:35:16.418Z,95717.88
2024-01-07T08:37:45.542Z,95720.69
2024-01-07T08:40:14.525Z,95716.31
2024-01-07T08:42:41.117Z,95726.66
2024-01-07T08:45:08.318Z,95723.06
2024-01-07T08:47:40.792Z,95724.66
2024-01-07T08:50:09.718Z,95724.66
2024-01-07T08:52:36.680Z,95732.00
2024-01-07T08:55:06.841Z,95733.00
2024-01-07T08:57:33.957Z,95728.81
2024-01-07T09:00:00.474Z,95735.78
2024-01-07T09:02:27.509Z,95728.97
2024-01-07T09:04:53.977Z,95733.59
2024-01-07T09:07:20.596Z,95741.53
2024-01-07T09:09:47.189Z,95741.13
2024-01-07T09:12:13.668Z,95738.53
2024-01-07T09:14:40.247Z,95746.28
2024-01-07T09:17:07.205Z,95752.06
2024-01-07T09:19:33.829Z,95752.84
2024-01-07T09:22:00.542Z,95751.63
2024-01-07T09:24:27.092Z,95745.44
2024-01-07T09:26:53.574Z,95748.63
2024-01-07T09:29:20.125Z,95755.16
2024-01-07T09:31:46.763Z,95752.78
2024-01-07T09:34:13.450Z,95752.38
2024-01-07T09:36:39.994Z,95755.16
2024-01-07T09:39:07.383Z,95762.72
2024-01-07T09:41:34.840Z,95769.13
2024-01-07T09:44:01.657Z,95764.75
2024-01-07T09:46:30.335Z,95765.53
2024-01-07T09:48:57.230Z,95767.31
2024-01-07T09:51:24.349Z,95773.31
2024-01-07T09:53:57.899Z,95782.06
2024-01-07T09:56:26.654Z,95778.69
2024-01-07T09:58:53.164Z,95785.44
2024-01-07T10:01:20.059Z,95780.63
2024-01-07T10:03:47.033Z,95782.59
2024-01-07T10:06:14.175Z,95791.72
2024-01-07T10:08:40.772Z,95799.78
2024-01-07T10:11:10.417Z,95796.19
2024-01-07T10:13:37.312Z,95792.59
2024-01-07T10:16:04.017Z,95806.56
2024-01-07T10:18:32.466Z,95810.16
2024-01-07T10:21:04.957Z,95811.38
2024-01-07T10:23:31.908Z,95814.19
2024-01-07T10:26:01.523Z,95817.78
2024-01-07T10:28:29.853Z,95819.75
2024-01-07T10:30:56.451Z,95815.00
2024-01-07T10:33:24.903Z,95810.22
2024-01-07T10:36:02.394Z,95813.19
2024-01-07T10:38:29.082Z,95808.81
2024-01-07T10:40:58.168Z,95818.16
2024-01-07T10:43:25.224Z,95811.41
2024-01-07T10:45:52.512Z,95817.00
2024-01-07T10:48:22.273Z,95815.00
2024-01-07T10:50:51.478Z,95812.63
2024-01-07T10:53:23.912Z,95821.97
2024-01-07T10:56:01.066Z,95815.75
2024-01-07T10:58:27.706Z,95817.72
2024-01-07T11:00:55.516Z,95823.69
2024-01-07T11:03:57.516Z,95814.19
2024-01-07T11:06:56.652Z,95815.75
2024-01-07T11:09:36.436Z,95819.75
2024-01-07T11:12:03.463Z,95820.16
2024-01-07T11:14:36.800Z,95819.31
2024-01-07T11:17:04.257Z,95821.47
2024-01-07T11:19:31.463Z,95821.84
2024-01-07T11:22:24.661Z,95822.03
2024-01-07T11:24:52.474Z,95823.59
2024-01-07T11:27:19.049Z,95821.25
2024-01-07T11:29:45.556Z,95830.41
2024-01-07T11:32:17.984Z,95826.00
2024-01-07T11:34:45.660Z,95826.44
2024-01-07T11:37:15.098Z,95823.84
2024-01-07T11:39:46.090Z,95828.44
2024-01-07T11:42:13.592Z,95825.22
2024-01-07T11:44:56.561Z,95819.25
2024-01-07T11:47:24.995Z,95809.88
2024-01-07T11:49:51.838Z,95814.63
2024-01-07T11:52:19.797Z,95817.22
2024-01-07T11:54:47.865Z,95818.84
2024-01-07T11:57:15.127Z,95818.41
2024-01-07T11:59:44.148Z,95822.41
2024-01-07T12:02:12.066Z,95831.63
2024-01-07T12:04:38.595Z,95821.09
2024-01-07T12:07:05.829Z,95823.25
2024-01-07T12:09:32.458Z,95813.66
2024-01-07T12:11:59.288Z,95820.44
2024-01-07T12:14:26.996Z,95832.41
2024-01-07T12:16:53.694Z,95829.78
2024-01-07T12:19:21.368Z,95822.03
2024-01-07T12:21:48.972Z,95821.00
2024-01-07T12:24:15.697Z,95818.78
2024-01-07T12:26:42.492Z,95815.97
2024-01-07T12:29:11.037Z,95815.19
2024-01-07T12:31:37.635Z,95826.56
2024-01-07T12:34:04.585Z,95825.19
2024-01-07T12:36:33.117Z,95835.34
2024-01-07T12:39:00.066Z,95835.13
2024-01-07T12:41:26.733Z,95826.34
2024-01-07T12:43:53.254Z,95828.38
2024-01-07T12:46:19.898Z,95844.13
2024-01-07T12:48:46.478Z,95842.75
2024-01-07T12:51:13.063Z,95841.56
2024-01-07T12:53:39.657Z,95839.59
2024-01-07T12:56:06.470Z,95837.97
2024-01-07T12:58:33.154Z,95847.53
2024-01-07T13:00:59.965Z,95835.78
2024-01-07T13:03:27.095Z,95841.91
2024-01-07T13:05:53.852Z,95843.91
2024-01-07T13:08:23.101Z,95844.78
2024-01-07T13:10:50.114Z,95849.97
2024-01-07T13:13:16.769Z,95851.94
2024-01-07T13:15:43.851Z,95844.59
2024-01-07T13:18:13.074Z,95847.19
2024-01-07T13:20:42.670Z,95857.09
2024-01-07T13:23:09.187Z,95855.44
2024-01-07T13:25:36.245Z,95856.31
2024-01-07T13:28:02.985Z,95865.81
2024-01-07T13:30:30.895Z,95862.38
2024-01-07T13:32:57.976Z,95862.22
2024-01-07T13:35:25.938Z,95863.81
2024-01-07T13:37:52.771Z,95866.84
2024-01-07T13:40:20.079Z,95865.09
2024-01-07T13:42:47.104Z,95866.88
2024-01-07T13:45:14.594Z,95868.69
2024-01-07T13:47:41.592Z,95873.09
2024-01-07T13:50:10.823Z,95876.69
2024-01-07T13:52:37.626Z,95882.38
2024-01-07T13:55:04.740Z,95878.75
2024-01-07T13:57:31.891Z,95874.97
2024-01-07T13:59:58.654Z,95872.44
2024-01-07T14:02:25.212Z,95880.03
2024-01-07T14:04:52.761Z,95882.22
2024-01-07T14:07:21.958Z,95879.22
2024-01-07T14:09:48.570Z,95887.97
2024-01-07T14:12:15.303Z,95892.59
2024-01-07T14:14:41.787Z,95892.41
2024-01-07T14:17:08.365Z,95896.44
2024-01-07T14:19:35.142Z,95898.81
2024-01-07T14:22:02.091Z,95897.66
2024-01-07T14:24:28.656Z,95904.03
2024-01-07T14:26:57.522Z,95908.03
2024-01-07T14:29:28.490Z,95905.25
2024-01-07T14:31:55.298Z,95906.06
2024-01-07T14:34:22.091Z,95916.41
2024-01-07T14:36:48.695Z,95910.88
2024-01-07T14:39:15.786Z,95911.66
2024-01-07T14:41:42.868Z,95918.84
2024-01-07T14:44:12.469Z,95919.84
2024-01-07T14:46:40.079Z,95921.84
2024-01-07T14:49:08.406Z,95926.03
2024-01-07T14:51:35.513Z,95936.38
2024-01-07T14:54:02.541Z,95941.97
2024-01-07T14:56:29.077Z,95942.97
2024-01-07T14:58:55.982Z,95943.97
2024-01-07T15:01:22.870Z,95950.16
2024-01-07T15:03:49.500Z,95960.53
2024-01-07T15:06:16.375Z,95955.53
2024-01-07T15:08:46.175Z,95958.34
2024-01-07T15:11:12.730Z,95961.50
2024-01-07T15:13:40.768Z,95964.31
2024-01-07T15:16:07.889Z,95971.06
2024-01-07T15:18:38.163Z,95974.66
2024-01-07T15:21:06.073Z,95970.50
2024-01-07T15:23:32.657Z,95969.50
2024-01-07T15:25:59.075Z,95973.06
2024-01-07T15:28:25.781Z,95976.28
2024-01-07T15:30:52.465Z,95981.06
2024-01-07T15:33:19.345Z,95986.25
2024-01-07T15:35:45.880Z,95982.28
2024-01-07T15:38:12.396Z,95983.66
2024-01-07T15:40:38.892Z,95984.66
2024-01-07T15:43:05.469Z,95986.25
2024-01-07T15:45:32.069Z,95988.44
2024-01-07T15:47:58.594Z,95985.84
2024-01-07T15:50:25.066Z,95992.63
2024-01-07T15:52:51.610Z,95989.84
2024-01-07T15:55:19.560Z,96003.78
2024-01-07T15:57:46.496Z,95998.22
2024-01-07T16:00:14.649Z,96003.00
2024-01-07T16:02:41.292Z,96009.16
2024-01-07T16:05:08.710Z,96011.13
2024-01-07T16:07:35.437Z,96012.13
2024-01-07T16:10:02.066Z,96020.50
2024-01-07T16:12:31.549Z,96018.53
2024-01-07T16:14:58.743Z,96020.13
2024-01-07T16:17:25.654Z,96035.63
2024-01-07T16:19:52.561Z,96034.03
2024-01-07T16:22:19.330Z,96032.47
2024-01-07T16:24:46.138Z,96037.03
2024-01-07T16:27:13.711Z,96032.84
2024-01-07T16:29:45.218Z,96044.38
2024-01-07T16:32:16.085Z,96043.56
2024-01-07T16:34:43.200Z,96036.41
2024-01-07T16:37:09.889Z,96051.53
2024-01-07T16:39:36.824Z,96055.53
2024-01-07T16:42:03.689Z,96055.31
2024-01-07T16:44:30.343Z,96052.31
2024-01-07T16:46:57.021Z,96060.66
2024-01-07T16:51:53.265Z,96066.22
2024-01-07T16:54:19.786Z,96071.41
2024-01-07T16:56:46.380Z,96079.56
2024-01-07T16:59:15.623Z,96073.97
2024-01-07T17:01:44.188Z,96079.31
2024-01-07T17:04:10.778Z,96076.53
2024-01-07T17:06:37.560Z,96080.69
2024-01-07T17:09:04.667Z,96077.13
2024-01-07T17:11:31.360Z,96087.66
2024-01-07T17:13:57.932Z,96087.66
2024-01-07T17:16:29.046Z,96097.19
2024-01-07T17:18:55.802Z,96088.03
2024-01-07T17:21:22.642Z,96100.38
2024-01-07T17:23:52.406Z,96103.69
2024-01-07T17:26:24.880Z,96110.25
2024-01-07T17:28:51.554Z,96110.63
2024-01-07T17:31:24.332Z,96107.84
2024-01-07T17:33:50.943Z,96112.22
2024-01-07T17:36:17.498Z,96109.44
2024-01-07T17:38:44.337Z,96115.78
2024-01-07T17:41:11.815Z,96121.91
2024-01-07T17:43:38.555Z,96119.72
2024-01-07T17:46:10.773Z,96128.81
2024-01-07T17:48:38.979Z,96137.69
2024-01-07T17:51:05.904Z,96129.56
2024-01-07T17:53:32.578Z,96129.72
2024-01-07T17:55:59.205Z,96131.09
2024-01-07T17:58:25.691Z,96135.03
2024-01-07T18:00:52.446Z,96124.06
2024-01-07T18:03:18.989Z,96130.59
2024-01-07T18:05:45.834Z,96122.25
2024-01-07T18:08:13.154Z,96130.59
2024-01-07T18:10:39.709Z,96131.41
2024-01-07T18:13:06.754Z,96137.75
2024-01-07T18:15:34.015Z,96129.41
2024-01-07T18:18:03.372Z,96140.41
2024-01-07T18:20:30.735Z,96135.81
2024-01-07T18:22:57.276Z,96135.97
2024-01-07T18:25:23.725Z,96143.09
2024-01-07T18:27:50.656Z,96143.72
2024-01-07T18:30:17.186Z,96152.19
2024-01-07T18:32:44.372Z,96155.75
2024-01-07T18:35:10.962Z,96158.47
2024-01-07T18:37:37.929Z,96156.50
2024-01-07T18:40:04.984Z,96159.69
2024-01-07T18:42:32.008Z,96158.09
2024-01-07T18:44:58.563Z,96167.63
2024-01-07T18:47:26.788Z,96165.28
2024-01-07T18:49:53.466Z,96171.59
2024-01-07T18:52:19.969Z,96172.53
2024-01-07T18:54:46.447Z,96171.13
2024-01-07T18:57:17.979Z,96166.31
2024-01-07T18:59:44.679Z,96171.28
2024-01-07T19:02:11.345Z,96176.81
2024-01-07T19:04:40.968Z,96182.97
2024-01-07T19:07:07.479Z,96175.78
2024-01-07T19:09:34.041Z,96184.06
2024-01-07T19:12:00.565Z,96181.56
2024-01-07T19:14:27.065Z,96187.19
2024-01-07T19:16:53.622Z,96188.81
2024-01-07T19:19:20.144Z,96192.81
2024-01-07T19:21:47.127Z,96185.84
2024-01-07T19:24:13.594Z,96193.16
2024-01-07T19:26:44.028Z,96196.88
2024-01-07T19:29:12.137Z,96202.41
2024-01-07T19:31:39.150Z,96200.38
2024-01-07T19:34:05.817Z,96206.78
2024-01-07T19:36:33.931Z,96215.44
2024-01-07T19:39:06.547Z,96210.66
2024-01-07T19:41:38.044Z,96211.25
2024-01-07T19:44:05.336Z,96213.22
2024-01-07T19:46:35.246Z,96217.47
2024-01-07T19:49:03.705Z,96205.22
2024-01-07T19:51:30.897Z,96213.56
2024-01-07T19:53:58.256Z,96210.03
2024-01-07T19:56:25.142Z,96217.84
2024-01-07T19:58:52.369Z,96229.31
2024-01-07T20:01:19.126Z,96216.63
2024-01-07T20:03:46.068Z,96240.19
2024-01-07T20:06:14.587Z,96236.72
2024-01-07T20:08:44.212Z,96233.69
2024-01-07T20:11:25.470Z,96235.84
2024-01-07T20:13:52.980Z,96233.44
2024-01-07T20:16:21.244Z,96232.63
2024-01-07T20:18:52.699Z,96243.31
2024-01-07T20:21:24.310Z,96240.72
2024-01-07T20:23:55.633Z,96237.78
2024-01-07T20:26:23.434Z,96252.03
2024-01-07T20:28:54.593Z,96254.94
2024-01-07T20:31:22.293Z,96232.09
2024-01-07T20:33:49.873Z,96254.66
2024-01-07T20:36:16.685Z,96254.66
2024-01-07T20:38:43.990Z,96260.34
2024-01-07T20:41:11.261Z,96251.84
2024-01-07T20:43:38.591Z,96266.50
2024-01-07T20:46:14.003Z,96251.22
2024-01-07T20:48:40.870Z,96269.25
2024-01-07T20:51:08.550Z,96271.38
2024-01-07T20:53:36.503Z,96268.34
2024-01-07T20:56:03.390Z,96271.88
2024-01-07T20:58:31.720Z,96264.97
2024-01-07T21:01:00.552Z,96269.13
2024-01-07T21:03:27.438Z,96264.16
2024-01-07T21:05:54.419Z,96270.66
2024-01-07T21:08:21.621Z,96265.22
2024-01-07T21:10:48.795Z,96269.75
2024-01-07T21:13:15.788Z,96275.19
2024-01-07T21:15:42.764Z,96269.59
2024-01-07T21:18:09.384Z,96285.22
2024-01-07T21:20:36.792Z,96267.00
2024-01-07T21:23:04.854Z,96278.81
2024-01-07T21:25:33.517Z,96280.75
2024-01-07T21:28:00.228Z,96292.66
2024-01-07T21:30:26.973Z,96277.19
2024-01-07T21:32:54.028Z,96279.63
2024-01-07T21:35:20.863Z,96281.53
2024-01-07T21:37:47.697Z,96287.84
2024-01-07T21:40:16.311Z,96282.06
2024-01-07T21:42:42.817Z,96286.06
2024-01-07T21:45:10.881Z,96282.69
2024-01-07T21:47:38.878Z,96278.25
2024-01-07T21:50:06.158Z,96290.50
2024-01-07T21:52:32.761Z,96285.19
2024-01-07T21:54:59.647Z,96305.59
2024-01-07T21:57:26.732Z,96296.00
2024-01-07T21:59:53.440Z,96299.22
2024-01-07T22:02:20.381Z,96300.00
2024-01-07T22:04:47.856Z,96292.63
2024-01-07T22:07:14.688Z,96296.00
2024-01-07T22:09:41.161Z,96308.25
2024-01-07T22:12:07.769Z,96299.56
2024-01-07T22:14:34.397Z,96308.72
2024-01-07T22:17:00.889Z,96311.63
2024-01-07T22:19:27.527Z,96304.34
2024-01-07T22:21:54.013Z,96296.63
2024-01-07T22:24:23.866Z,96294.41
2024-01-07T22:26:50.555Z,96304.34
2024-01-07T22:29:19.086Z,96304.34
2024-01-07T22:31:45.671Z,96290.06
2024-01-07T22:34:12.584Z,96302.75
2024-01-07T22:36:42.088Z,96313.06
2024-01-07T22:39:11.533Z,96308.72
2024-01-07T22:41:45.512Z,96302.75
2024-01-07T22:44:16.063Z,96302.06
2024-01-07T22:46:49.801Z,96310.31
2024-01-07T22:49:17.640Z,96293.25
2024-01-07T22:51:45.690Z,96312.25
2024-01-07T22:54:12.743Z,96307.91
2024-01-07T22:56:44.249Z,96302.75
2024-01-07T22:59:14.702Z,96305.69
2024-01-07T23:01:41.822Z,96307.91
2024-01-07T23:04:09.121Z,96307.56
2024-01-07T23:06:38.103Z,96311.63
2024-01-07T23:09:06.424Z,96305.16
2024-01-07T23:11:33.819Z,96297.78
2024-01-07T23:14:00.894Z,96304.34
2024-01-07T23:16:27.572Z,96307.72
2024-01-07T23:18:55.701Z,96306.31
2024-01-07T23:21:24.702Z,96310.84
2024-01-07T23:23:52.026Z,96318.22
2024-01-07T23:26:18.661Z,96310.47
2024-01-07T23:28:45.269Z,96307.91
2024-01-07T23:31:12.126Z,96318.22
2024-01-07T23:33:39.180Z,96313.06
2024-01-07T23:36:08.098Z,96302.75
2024-01-07T23:38:36.303Z,96306.13
2024-01-07T23:41:06.533Z,96298.06
2024-01-07T23:43:33.994Z,96307.91
2024-01-07T23:46:00.762Z,96302.41
2024-01-07T23:48:29.032Z,96312.72
2024-01-07T23:50:55.649Z,96312.34
2024-01-07T23:53:22.278Z,96311.38
2024-01-07T23:55:49.125Z,96312.00
2024-01-07T23:58:15.563Z,96314.13
